createdAt,value
2022-08-31T00:00:35.213Z,17.77
2022-08-31T00:01:35.125Z,17.75
2022-08-31T00:02:35.150Z,17.75
2022-08-31T00:03:34.992Z,17.75
2022-08-31T00:04:34.977Z,17.74
2022-08-31T00:05:34.904Z,17.72
2022-08-31T00:06:34.843Z,17.72
2022-08-31T00:07:34.750Z,17.72
2022-08-31T00:08:34.671Z,17.70
2022-08-31T00:09:34.617Z,17.70
2022-08-31T00:10:37.212Z,17.68
2022-08-31T00:11:34.484Z,17.66
2022-08-31T00:12:34.424Z,17.64
2022-08-31T00:13:34.385Z,17.64
2022-08-31T00:14:34.282Z,17.62
2022-08-31T00:15:34.248Z,17.62
2022-08-31T00:16:34.212Z,17.59
2022-08-31T00:17:34.141Z,17.58
2022-08-31T00:18:34.025Z,17.58
2022-08-31T00:19:33.975Z,17.56
2022-08-31T00:20:34.831Z,17.55
2022-08-31T00:21:33.841Z,17.55
2022-08-31T00:22:33.761Z,17.54
2022-08-31T00:23:34.482Z,17.54
2022-08-31T00:24:33.658Z,17.52
2022-08-31T00:25:33.611Z,17.51
2022-08-31T00:26:33.519Z,17.51
2022-08-31T00:27:33.455Z,17.51
2022-08-31T00:28:33.378Z,17.48
2022-08-31T00:29:33.319Z,17.48
2022-08-31T00:30:33.252Z,17.46
2022-08-31T00:31:34.028Z,17.48
2022-08-31T00:32:33.128Z,17.48
2022-08-31T00:33:33.061Z,17.48
2022-08-31T00:34:33.000Z,17.46
2022-08-31T00:35:33.734Z,17.46
2022-08-31T00:36:32.852Z,17.44
2022-08-31T00:37:32.821Z,17.44
2022-08-31T00:38:32.761Z,17.41
2022-08-31T00:39:32.684Z,17.41
2022-08-31T00:40:32.658Z,17.41
2022-08-31T00:41:32.580Z,17.41
2022-08-31T00:42:32.478Z,17.40
2022-08-31T00:43:32.396Z,17.41
2022-08-31T00:44:32.348Z,17.41
2022-08-31T00:45:32.303Z,17.43
2022-08-31T00:46:32.240Z,17.43
2022-08-31T00:47:33.364Z,17.44
2022-08-31T00:48:32.076Z,17.43
2022-08-31T00:49:32.036Z,17.43
2022-08-31T00:50:31.976Z,17.43
2022-08-31T00:51:31.884Z,17.41
2022-08-31T00:52:33.202Z,17.40
2022-08-31T00:53:31.790Z,17.38
2022-08-31T00:54:31.682Z,17.37
2022-08-31T00:55:31.634Z,17.38
2022-08-31T00:56:31.598Z,17.37
2022-08-31T00:57:34.215Z,17.37
2022-08-31T00:58:31.454Z,17.37
2022-08-31T00:59:33.784Z,17.38
2022-08-31T01:00:31.317Z,17.37
2022-08-31T01:01:31.290Z,17.38
2022-08-31T01:02:31.225Z,17.36
2022-08-31T01:03:31.104Z,17.34
2022-08-31T01:04:31.035Z,17.34
2022-08-31T01:05:31.003Z,17.34
2022-08-31T01:06:30.902Z,17.31
2022-08-31T01:07:30.840Z,17.33
2022-08-31T01:08:31.167Z,17.33
2022-08-31T01:09:30.706Z,17.31
2022-08-31T01:10:30.642Z,17.28
2022-08-31T01:11:30.629Z,17.30
2022-08-31T01:12:30.515Z,17.28
2022-08-31T01:13:30.468Z,17.28
2022-08-31T01:14:30.396Z,17.30
2022-08-31T01:15:30.319Z,17.30
2022-08-31T01:16:30.339Z,17.28
2022-08-31T01:17:36.305Z,17.28
2022-08-31T01:18:30.142Z,17.28
2022-08-31T01:19:30.078Z,17.26
2022-08-31T01:20:30.001Z,17.25
2022-08-31T01:21:29.947Z,17.25
2022-08-31T01:22:29.908Z,17.23
2022-08-31T01:23:29.815Z,17.23
2022-08-31T01:24:29.739Z,17.22
2022-08-31T01:25:33.572Z,17.22
2022-08-31T01:26:29.622Z,17.19
2022-08-31T01:27:29.538Z,17.21
2022-08-31T01:28:29.473Z,17.18
2022-08-31T01:29:29.439Z,17.18
2022-08-31T01:30:29.342Z,17.16
2022-08-31T01:31:29.359Z,17.15
2022-08-31T01:32:29.223Z,17.15
2022-08-31T01:33:29.169Z,17.14
2022-08-31T01:34:29.086Z,17.11
2022-08-31T01:35:30.250Z,17.11
2022-08-31T01:36:28.972Z,17.08
2022-08-31T01:37:29.493Z,17.08
2022-08-31T01:38:28.825Z,17.07
2022-08-31T01:39:28.773Z,17.08
2022-08-31T01:40:28.784Z,17.06
2022-08-31T01:41:29.462Z,17.06
2022-08-31T01:42:33.337Z,17.04
2022-08-31T01:43:28.505Z,17.03
2022-08-31T01:44:28.442Z,17.03
2022-08-31T01:45:28.389Z,17.03
2022-08-31T01:46:28.371Z,17.03
2022-08-31T01:47:28.267Z,17.04
2022-08-31T01:48:28.178Z,17.03
2022-08-31T01:49:28.125Z,17.03
2022-08-31T01:50:28.067Z,17.01
2022-08-31T01:51:27.994Z,16.98
2022-08-31T01:52:28.053Z,17.00
2022-08-31T01:53:28.213Z,16.98
2022-08-31T01:54:27.775Z,16.97
2022-08-31T01:55:27.740Z,16.94
2022-08-31T01:56:27.658Z,16.93
2022-08-31T01:57:34.276Z,16.93
2022-08-31T01:58:27.535Z,16.89
2022-08-31T01:59:27.471Z,16.88
2022-08-31T02:00:27.412Z,16.88
2022-08-31T02:01:33.093Z,16.86
2022-08-31T02:02:27.334Z,16.85
2022-08-31T02:03:27.218Z,16.82
2022-08-31T02:04:27.141Z,16.82
2022-08-31T02:05:27.091Z,16.81
2022-08-31T02:06:27.023Z,16.79
2022-08-31T02:07:27.132Z,16.79
2022-08-31T02:08:26.890Z,16.78
2022-08-31T02:09:26.808Z,16.79
2022-08-31T02:10:26.762Z,16.79
2022-08-31T02:11:26.710Z,16.81
2022-08-31T02:12:26.656Z,16.78
2022-08-31T02:13:27.447Z,16.79
2022-08-31T02:14:26.518Z,16.78
2022-08-31T02:15:26.433Z,16.76
2022-08-31T02:16:26.444Z,16.75
2022-08-31T02:17:26.318Z,16.71
2022-08-31T02:18:26.241Z,16.68
2022-08-31T02:19:26.175Z,16.68
2022-08-31T02:20:26.106Z,16.67
2022-08-31T02:21:26.129Z,16.66
2022-08-31T02:22:25.982Z,16.64
2022-08-31T02:23:28.262Z,16.64
2022-08-31T02:24:25.841Z,16.64
2022-08-31T02:25:25.827Z,16.63
2022-08-31T02:26:25.712Z,16.61
2022-08-31T02:27:25.660Z,16.63
2022-08-31T02:28:25.572Z,16.58
2022-08-31T02:29:25.564Z,16.58
2022-08-31T02:30:25.471Z,16.58
2022-08-31T02:31:25.488Z,16.56
2022-08-31T02:32:25.343Z,16.56
2022-08-31T02:33:25.291Z,16.53
2022-08-31T02:34:25.215Z,16.52
2022-08-31T02:35:25.930Z,16.53
2022-08-31T02:36:25.095Z,16.52
2022-08-31T02:37:25.036Z,16.53
2022-08-31T02:38:24.929Z,16.50
2022-08-31T02:39:24.873Z,16.49
2022-08-31T02:40:24.872Z,16.49
2022-08-31T02:41:25.534Z,16.49
2022-08-31T02:42:24.676Z,16.49
2022-08-31T02:43:25.356Z,16.48
2022-08-31T02:44:24.542Z,16.46
2022-08-31T02:45:24.480Z,16.46
2022-08-31T02:46:24.481Z,16.46
2022-08-31T02:47:24.356Z,16.46
2022-08-31T02:48:24.276Z,16.45
2022-08-31T02:49:24.245Z,16.43
2022-08-31T02:50:24.160Z,16.45
2022-08-31T02:51:24.089Z,16.45
2022-08-31T02:52:24.018Z,16.45
2022-08-31T02:53:24.774Z,16.43
2022-08-31T02:54:23.881Z,16.43
2022-08-31T02:55:23.817Z,16.42
2022-08-31T02:56:23.851Z,16.42
2022-08-31T02:57:23.692Z,16.41
2022-08-31T02:58:24.259Z,16.42
2022-08-31T02:59:23.604Z,16.42
2022-08-31T03:00:23.510Z,16.41
2022-08-31T03:01:23.538Z,16.42
2022-08-31T03:02:23.433Z,16.41
2022-08-31T03:03:23.314Z,16.42
2022-08-31T03:04:23.247Z,16.39
2022-08-31T03:05:23.237Z,16.39
2022-08-31T03:06:23.103Z,16.35
2022-08-31T03:07:23.047Z,16.38
2022-08-31T03:08:22.993Z,16.35
2022-08-31T03:09:22.904Z,16.33
2022-08-31T03:10:22.858Z,16.34
2022-08-31T03:11:23.979Z,16.34
2022-08-31T03:12:22.713Z,16.33
2022-08-31T03:13:22.658Z,16.34
2022-08-31T03:14:22.578Z,16.33
2022-08-31T03:15:22.524Z,16.33
2022-08-31T03:16:22.480Z,16.30
2022-08-31T03:17:23.945Z,16.30
2022-08-31T03:18:22.334Z,16.30
2022-08-31T03:19:22.267Z,16.30
2022-08-31T03:20:22.213Z,16.27
2022-08-31T03:21:22.138Z,16.28
2022-08-31T03:22:22.076Z,16.28
2022-08-31T03:23:22.014Z,16.30
2022-08-31T03:24:21.946Z,16.28
2022-08-31T03:25:21.874Z,16.27
2022-08-31T03:26:21.806Z,16.28
2022-08-31T03:27:21.755Z,16.28
2022-08-31T03:28:21.681Z,16.27
2022-08-31T03:29:21.648Z,16.27
2022-08-31T03:30:21.562Z,16.27
2022-08-31T03:31:21.533Z,16.25
2022-08-31T03:32:21.428Z,16.25
2022-08-31T03:33:21.392Z,16.25
2022-08-31T03:34:21.298Z,16.23
2022-08-31T03:35:22.009Z,16.25
2022-08-31T03:36:21.190Z,16.24
2022-08-31T03:37:21.106Z,16.24
2022-08-31T03:38:21.028Z,16.21
2022-08-31T03:39:20.985Z,16.23
2022-08-31T03:40:20.989Z,16.21
2022-08-31T03:41:20.877Z,16.21
2022-08-31T03:42:20.774Z,16.17
2022-08-31T03:43:20.711Z,16.20
2022-08-31T03:44:20.630Z,16.17
2022-08-31T03:45:20.579Z,16.15
2022-08-31T03:46:20.585Z,16.15
2022-08-31T03:47:20.492Z,16.17
2022-08-31T03:48:20.382Z,16.17
2022-08-31T03:49:20.313Z,16.15
2022-08-31T03:50:20.240Z,16.14
2022-08-31T03:51:20.203Z,16.14
2022-08-31T03:52:20.118Z,16.12
2022-08-31T03:53:23.084Z,16.14
2022-08-31T03:54:19.932Z,16.12
2022-08-31T03:55:19.925Z,16.12
2022-08-31T03:56:19.843Z,16.11
2022-08-31T03:57:19.784Z,16.11
2022-08-31T03:58:19.727Z,16.09
2022-08-31T03:59:19.666Z,16.07
2022-08-31T04:00:19.601Z,16.08
2022-08-31T04:01:19.511Z,16.07
2022-08-31T04:02:19.539Z,16.05
2022-08-31T04:03:19.570Z,16.05
2022-08-31T04:04:19.343Z,16.05
2022-08-31T04:05:20.271Z,16.04
2022-08-31T04:06:19.187Z,16.05
2022-08-31T04:07:19.941Z,16.02
2022-08-31T04:08:19.036Z,16.02
2022-08-31T04:09:19.022Z,16.04
2022-08-31T04:10:18.947Z,16.02
2022-08-31T04:11:25.490Z,16.02
2022-08-31T04:12:18.789Z,16.02
2022-08-31T04:13:18.906Z,16.05
2022-08-31T04:14:18.634Z,16.04
2022-08-31T04:15:18.550Z,16.04
2022-08-31T04:16:18.588Z,16.05
2022-08-31T04:17:19.976Z,16.04
2022-08-31T04:18:18.355Z,16.05
2022-08-31T04:19:18.294Z,16.04
2022-08-31T04:20:18.230Z,16.05
2022-08-31T04:21:18.170Z,16.04
2022-08-31T04:22:18.107Z,16.02
2022-08-31T04:23:18.265Z,16.02
2022-08-31T04:24:17.983Z,16.02
2022-08-31T04:25:18.276Z,16.01
2022-08-31T04:26:17.850Z,16.01
2022-08-31T04:27:17.808Z,16.01
2022-08-31T04:28:17.706Z,16.01
2022-08-31T04:29:17.668Z,16.01
2022-08-31T04:30:17.599Z,16.01
2022-08-31T04:31:17.537Z,16.01
2022-08-31T04:32:17.462Z,16.02
2022-08-31T04:33:17.503Z,16.02
2022-08-31T04:34:17.321Z,16.00
2022-08-31T04:35:18.051Z,16.01
2022-08-31T04:36:17.189Z,16.01
2022-08-31T04:37:17.142Z,16.01
2022-08-31T04:38:17.052Z,16.00
2022-08-31T04:39:16.987Z,16.00
2022-08-31T04:40:16.966Z,16.01
2022-08-31T04:41:16.889Z,16.00
2022-08-31T04:42:16.811Z,16.00
2022-08-31T04:43:16.743Z,16.00
2022-08-31T04:44:19.922Z,16.00
2022-08-31T04:45:16.641Z,15.97
2022-08-31T04:46:16.630Z,16.00
2022-08-31T04:47:18.023Z,16.00
2022-08-31T04:48:16.406Z,16.00
2022-08-31T04:49:16.337Z,16.00
2022-08-31T04:50:16.292Z,16.00
2022-08-31T04:51:16.232Z,15.97
2022-08-31T04:52:16.184Z,16.00
2022-08-31T04:53:16.969Z,16.01
2022-08-31T04:54:16.010Z,16.00
2022-08-31T04:55:15.959Z,16.00
2022-08-31T04:56:15.900Z,16.01
2022-08-31T04:57:15.857Z,16.01
2022-08-31T04:58:16.370Z,16.01
2022-08-31T04:59:15.702Z,16.01
2022-08-31T05:00:15.645Z,16.02
2022-08-31T05:01:15.655Z,16.02
2022-08-31T05:02:15.538Z,16.05
2022-08-31T05:03:15.439Z,16.05
2022-08-31T05:04:15.366Z,16.04
2022-08-31T05:05:15.334Z,16.04
2022-08-31T05:06:15.249Z,16.05
2022-08-31T05:07:15.201Z,16.05
2022-08-31T05:08:15.107Z,16.07
2022-08-31T05:09:15.045Z,16.07
2022-08-31T05:10:14.988Z,16.09
2022-08-31T05:11:16.143Z,16.09
2022-08-31T05:12:14.843Z,16.11
2022-08-31T05:13:14.816Z,16.11
2022-08-31T05:14:14.710Z,16.12
2022-08-31T05:15:14.647Z,16.14
2022-08-31T05:16:14.604Z,16.12
2022-08-31T05:17:15.201Z,16.14
2022-08-31T05:18:14.485Z,16.17
2022-08-31T05:19:14.394Z,16.20
2022-08-31T05:20:14.329Z,16.23
2022-08-31T05:21:14.262Z,16.24
2022-08-31T05:22:14.204Z,16.24
2022-08-31T05:23:14.187Z,16.24
2022-08-31T05:24:14.068Z,16.25
2022-08-31T05:25:14.034Z,16.27
2022-08-31T05:26:13.924Z,16.28
2022-08-31T05:27:13.877Z,16.28
2022-08-31T05:28:13.811Z,16.30
2022-08-31T05:29:13.755Z,16.31
2022-08-31T05:30:13.676Z,16.34
2022-08-31T05:31:13.712Z,16.35
2022-08-31T05:32:13.536Z,16.33
2022-08-31T05:33:13.476Z,16.38
2022-08-31T05:34:13.421Z,16.38
2022-08-31T05:35:15.657Z,16.39
2022-08-31T05:36:13.282Z,16.39
2022-08-31T05:37:13.225Z,16.41
2022-08-31T05:38:13.157Z,16.39
2022-08-31T05:39:13.098Z,16.42
2022-08-31T05:40:13.046Z,16.42
2022-08-31T05:41:12.968Z,16.43
2022-08-31T05:42:12.901Z,16.43
2022-08-31T05:43:12.823Z,16.46
2022-08-31T05:44:12.771Z,16.48
2022-08-31T05:45:12.710Z,16.48
2022-08-31T05:46:12.681Z,16.50
2022-08-31T05:47:12.584Z,16.50
2022-08-31T05:48:12.503Z,16.52
2022-08-31T05:49:12.442Z,16.52
2022-08-31T05:50:12.389Z,16.52
2022-08-31T05:51:12.294Z,16.56
2022-08-31T05:52:12.256Z,16.53
2022-08-31T05:53:12.267Z,16.57
2022-08-31T05:54:12.118Z,16.57
2022-08-31T05:55:12.935Z,16.60
2022-08-31T05:56:11.985Z,16.60
2022-08-31T05:57:11.959Z,16.63
2022-08-31T05:58:11.846Z,16.64
2022-08-31T05:59:14.056Z,16.67
2022-08-31T06:00:11.729Z,16.71
2022-08-31T06:01:11.646Z,16.75
2022-08-31T06:02:11.746Z,16.75
2022-08-31T06:03:11.554Z,16.79
2022-08-31T06:04:11.450Z,16.79
2022-08-31T06:05:12.305Z,16.83
2022-08-31T06:06:11.322Z,16.85
2022-08-31T06:07:11.263Z,16.88
2022-08-31T06:08:15.229Z,16.88
2022-08-31T06:09:11.148Z,16.89
2022-08-31T06:10:11.065Z,16.91
2022-08-31T06:11:11.011Z,16.93
2022-08-31T06:12:10.927Z,16.96
2022-08-31T06:13:10.909Z,16.98
2022-08-31T06:14:10.815Z,17.01
2022-08-31T06:15:10.752Z,17.03
2022-08-31T06:16:11.526Z,17.03
2022-08-31T06:17:13.653Z,17.04
2022-08-31T06:18:10.560Z,17.04
2022-08-31T06:19:10.476Z,17.07
2022-08-31T06:20:13.086Z,17.08
2022-08-31T06:21:10.348Z,17.12
2022-08-31T06:22:10.297Z,17.14
2022-08-31T06:23:10.228Z,17.16
2022-08-31T06:24:10.162Z,17.16
2022-08-31T06:25:10.082Z,17.19
2022-08-31T06:26:10.036Z,17.18
2022-08-31T06:27:09.971Z,17.19
2022-08-31T06:28:09.922Z,17.19
2022-08-31T06:29:11.368Z,17.22
2022-08-31T06:30:09.781Z,17.22
2022-08-31T06:31:09.766Z,17.26
2022-08-31T06:32:09.641Z,17.26
2022-08-31T06:33:09.582Z,17.31
2022-08-31T06:34:09.525Z,17.34
2022-08-31T06:35:11.793Z,17.37
2022-08-31T06:36:09.373Z,17.40
2022-08-31T06:37:10.912Z,17.43
2022-08-31T06:38:09.264Z,17.46
2022-08-31T06:39:09.204Z,17.49
2022-08-31T06:40:09.211Z,17.51
2022-08-31T06:41:09.054Z,17.56
2022-08-31T06:42:08.993Z,17.59
2022-08-31T06:43:08.935Z,17.59
2022-08-31T06:44:08.854Z,17.63
2022-08-31T06:45:08.802Z,17.66
2022-08-31T06:46:08.765Z,17.68
2022-08-31T06:47:08.668Z,17.70
2022-08-31T06:48:08.602Z,17.77
2022-08-31T06:49:08.934Z,17.84
2022-08-31T06:50:08.468Z,17.90
2022-08-31T06:51:08.408Z,17.96
2022-08-31T06:52:08.335Z,18.00
2022-08-31T06:53:09.487Z,18.08
2022-08-31T06:54:27.940Z,18.14
2022-08-31T06:55:08.165Z,18.21
2022-08-31T06:56:20.341Z,18.30
2022-08-31T06:57:08.071Z,18.44
2022-08-31T06:58:07.961Z,-39.78
2022-08-31T06:59:07.888Z,-39.78
2022-08-31T07:00:07.821Z,-39.78
2022-08-31T07:01:07.852Z,-39.78
2022-08-31T07:02:07.831Z,-39.78
2022-08-31T07:03:07.652Z,-39.78
2022-08-31T07:04:07.563Z,-39.78
2022-08-31T07:05:07.531Z,-39.78
2022-08-31T07:06:07.424Z,-39.78
2022-08-31T07:07:07.365Z,-39.78
2022-08-31T07:08:07.316Z,-39.78
2022-08-31T07:09:07.261Z,-39.78
2022-08-31T07:10:07.162Z,-39.78
2022-08-31T07:11:07.122Z,-39.78
2022-08-31T07:12:07.054Z,-39.78
2022-08-31T07:13:06.985Z,-39.78
2022-08-31T07:14:06.922Z,-39.78
2022-08-31T07:15:06.864Z,-39.78
2022-08-31T07:16:06.861Z,-39.78
2022-08-31T07:17:07.922Z,-39.78
2022-08-31T07:18:10.286Z,-39.78
2022-08-31T07:19:06.635Z,-39.78
2022-08-31T07:20:06.533Z,-39.78
2022-08-31T07:21:06.458Z,-39.78
2022-08-31T07:22:06.407Z,-39.78
2022-08-31T07:23:06.375Z,-39.78
2022-08-31T07:24:06.277Z,-39.78
2022-08-31T07:25:06.215Z,-39.78
2022-08-31T07:26:06.136Z,-39.78
2022-08-31T07:27:06.088Z,-39.78
2022-08-31T07:28:06.041Z,-39.78
2022-08-31T07:29:05.995Z,-39.78
2022-08-31T07:30:05.909Z,-39.78
2022-08-31T07:31:05.883Z,-39.78
2022-08-31T07:32:05.759Z,-39.78
2022-08-31T07:33:05.690Z,-39.78
2022-08-31T07:34:05.615Z,-39.78
2022-08-31T07:35:06.769Z,-39.78
2022-08-31T07:36:05.490Z,-39.78
2022-08-31T07:37:05.434Z,-39.78
2022-08-31T07:38:05.363Z,-39.78
2022-08-31T07:39:05.291Z,-39.78
2022-08-31T07:40:07.757Z,-39.78
2022-08-31T07:41:05.961Z,-39.78
2022-08-31T07:42:05.123Z,-39.78
2022-08-31T07:43:05.040Z,-39.78
2022-08-31T07:44:04.995Z,-39.78
2022-08-31T07:45:04.925Z,-39.78
2022-08-31T07:46:05.119Z,-39.78
2022-08-31T07:47:04.800Z,-39.78
2022-08-31T07:48:04.716Z,-39.78
2022-08-31T07:49:04.663Z,-39.78
2022-08-31T07:50:04.587Z,-39.78
2022-08-31T07:51:04.523Z,-39.78
2022-08-31T07:52:04.459Z,-39.78
2022-08-31T07:53:04.426Z,-39.78
2022-08-31T07:54:04.341Z,-39.78
2022-08-31T07:55:04.282Z,-39.78
2022-08-31T07:56:04.212Z,-39.78
2022-08-31T07:57:04.142Z,-39.78
2022-08-31T07:58:04.093Z,-39.78
2022-08-31T07:59:05.229Z,-39.78
2022-08-31T08:00:03.962Z,-39.78
2022-08-31T08:01:03.880Z,-39.78
2022-08-31T08:02:03.917Z,-39.78
2022-08-31T08:03:03.836Z,-39.78
2022-08-31T08:04:03.732Z,-39.78
2022-08-31T08:05:03.638Z,-39.78
2022-08-31T08:06:03.608Z,-39.78
2022-08-31T08:07:03.508Z,-39.78
2022-08-31T08:08:03.457Z,-39.78
2022-08-31T08:09:21.977Z,-39.78
2022-08-31T08:10:03.345Z,-39.78
2022-08-31T08:11:03.270Z,-39.78
2022-08-31T08:12:03.178Z,-39.78
2022-08-31T08:13:05.141Z,-39.78
2022-08-31T08:14:06.640Z,18.47
2022-08-31T08:15:02.989Z,21.58
2022-08-31T08:16:02.955Z,21.50
2022-08-31T08:18:28.743Z,21.22
2022-08-31T08:19:29.660Z,21.29
2022-08-31T08:20:35.345Z,21.40
2022-08-31T08:21:29.546Z,21.35
2022-08-31T08:22:50.899Z,21.21
2022-08-31T08:23:29.484Z,21.03
2022-08-31T08:24:29.342Z,20.91
2022-08-31T08:25:29.272Z,20.84
2022-08-31T08:26:29.223Z,20.74
2022-08-31T08:27:29.175Z,20.64
2022-08-31T08:28:39.359Z,20.55
2022-08-31T08:29:29.070Z,20.42
2022-08-31T08:30:28.952Z,20.33
2022-08-31T08:31:28.967Z,20.35
2022-08-31T08:32:28.853Z,20.54
2022-08-31T08:33:28.768Z,20.69
2022-08-31T08:34:32.424Z,20.82
2022-08-31T08:35:28.668Z,20.85
2022-08-31T08:36:28.565Z,20.87
2022-08-31T08:37:54.449Z,20.85
2022-08-31T08:38:28.442Z,20.84
2022-08-31T08:39:28.397Z,20.84
2022-08-31T08:40:30.693Z,20.77
2022-08-31T08:41:28.240Z,20.82
2022-08-31T08:42:28.190Z,20.77
2022-08-31T08:43:30.930Z,20.80
2022-08-31T08:44:28.052Z,20.74
2022-08-31T08:45:28.018Z,20.67
2022-08-31T08:46:34.904Z,20.66
2022-08-31T08:47:42.770Z,20.67
2022-08-31T08:48:27.818Z,20.82
2022-08-31T08:49:27.738Z,20.99
2022-08-31T08:50:27.684Z,21.14
2022-08-31T08:51:27.624Z,21.27
2022-08-31T08:52:27.563Z,21.37
2022-08-31T08:53:27.477Z,21.37
2022-08-31T08:54:27.443Z,21.53
2022-08-31T08:55:27.353Z,21.69
2022-08-31T08:56:33.222Z,21.75
2022-08-31T08:57:27.222Z,21.79
2022-08-31T08:58:27.186Z,21.71
2022-08-31T08:59:27.113Z,21.62
2022-08-31T09:00:27.038Z,21.52
2022-08-31T09:01:27.003Z,21.43
2022-08-31T09:02:26.995Z,21.40
2022-08-31T09:03:26.853Z,21.28
2022-08-31T09:04:26.783Z,21.12
2022-08-31T09:05:26.721Z,21.01
2022-08-31T09:06:26.654Z,20.99
2022-08-31T09:07:26.599Z,21.14
2022-08-31T09:08:26.545Z,21.31
2022-08-31T09:09:26.450Z,21.40
2022-08-31T09:10:26.418Z,21.44
2022-08-31T09:11:26.320Z,21.46
2022-08-31T09:12:26.265Z,21.46
2022-08-31T09:13:26.195Z,21.59
2022-08-31T09:14:26.151Z,21.64
2022-08-31T09:15:26.089Z,21.61
2022-08-31T09:16:26.159Z,21.58
2022-08-31T09:17:25.949Z,21.59
2022-08-31T09:18:25.894Z,21.54
2022-08-31T09:19:25.817Z,21.42
2022-08-31T09:20:25.793Z,21.52
2022-08-31T09:21:25.710Z,21.49
2022-08-31T09:22:26.415Z,21.35
2022-08-31T09:23:25.560Z,21.43
2022-08-31T09:24:25.500Z,21.58
2022-08-31T09:25:25.436Z,21.59
2022-08-31T09:26:25.380Z,21.68
2022-08-31T09:27:25.306Z,21.68
2022-08-31T09:28:26.778Z,21.68
2022-08-31T09:29:25.174Z,21.62
2022-08-31T09:30:25.127Z,21.65
2022-08-31T09:31:25.135Z,21.72
2022-08-31T09:32:26.113Z,21.77
2022-08-31T09:33:24.943Z,21.82
2022-08-31T09:34:25.154Z,21.84
2022-08-31T09:35:24.797Z,21.84
2022-08-31T09:36:24.734Z,21.88
2022-08-31T09:37:24.702Z,21.99
2022-08-31T09:38:24.618Z,22.02
2022-08-31T09:39:24.541Z,21.99
2022-08-31T09:40:24.641Z,21.82
2022-08-31T09:41:24.458Z,21.69
2022-08-31T09:42:24.372Z,21.64
2022-08-31T09:43:24.298Z,21.65
2022-08-31T09:44:24.237Z,21.69
2022-08-31T09:45:24.223Z,21.80
2022-08-31T09:46:24.245Z,21.86
2022-08-31T09:47:24.051Z,22.00
2022-08-31T09:48:23.980Z,21.96
2022-08-31T09:49:23.902Z,21.75
2022-08-31T09:50:23.855Z,21.61
2022-08-31T09:51:23.794Z,21.53
2022-08-31T09:52:25.254Z,21.59
2022-08-31T09:53:23.650Z,21.62
2022-08-31T09:54:23.627Z,21.59
2022-08-31T09:55:23.539Z,21.62
2022-08-31T09:56:23.486Z,21.61
2022-08-31T09:57:23.395Z,21.64
2022-08-31T09:58:23.397Z,21.64
2022-08-31T09:59:23.296Z,21.64
2022-08-31T10:00:23.228Z,21.69
2022-08-31T10:01:23.255Z,21.82
2022-08-31T10:02:23.111Z,21.88
2022-08-31T10:03:23.119Z,21.96
2022-08-31T10:04:22.982Z,22.05
2022-08-31T10:05:22.963Z,22.14
2022-08-31T10:06:22.840Z,22.03
2022-08-31T10:07:22.779Z,22.05
2022-08-31T10:08:22.709Z,21.99
2022-08-31T10:09:22.640Z,21.84
2022-08-31T10:10:30.434Z,21.77
2022-08-31T10:11:22.528Z,21.75
2022-08-31T10:12:22.480Z,21.77
2022-08-31T10:13:22.755Z,21.80
2022-08-31T10:14:22.321Z,21.96
2022-08-31T10:15:22.255Z,21.98
2022-08-31T10:16:22.247Z,21.94
2022-08-31T10:17:22.127Z,21.99
2022-08-31T10:18:22.084Z,22.10
2022-08-31T10:19:22.017Z,22.21
2022-08-31T10:20:21.956Z,22.31
2022-08-31T10:21:21.892Z,22.37
2022-08-31T10:22:21.837Z,22.47
2022-08-31T10:23:21.750Z,22.60
2022-08-31T10:24:21.686Z,22.55
2022-08-31T10:25:21.647Z,22.58
2022-08-31T10:26:21.559Z,22.51
2022-08-31T10:27:21.504Z,22.52
2022-08-31T10:28:21.515Z,22.39
2022-08-31T10:29:23.630Z,22.30
2022-08-31T10:30:21.303Z,22.31
2022-08-31T10:31:21.397Z,22.36
2022-08-31T10:32:21.192Z,22.42
2022-08-31T10:33:21.249Z,22.51
2022-08-31T10:34:23.444Z,22.42
2022-08-31T10:35:20.992Z,22.33
2022-08-31T10:36:20.980Z,22.30
2022-08-31T10:37:20.874Z,22.33
2022-08-31T10:38:20.802Z,22.36
2022-08-31T10:39:20.728Z,22.43
2022-08-31T10:40:21.005Z,22.45
2022-08-31T10:41:20.609Z,22.55
2022-08-31T10:42:20.584Z,22.64
2022-08-31T10:43:20.560Z,22.68
2022-08-31T10:44:20.435Z,22.73
2022-08-31T10:45:20.368Z,22.61
2022-08-31T10:46:20.408Z,22.54
2022-08-31T10:47:22.925Z,22.37
2022-08-31T10:48:20.184Z,22.31
2022-08-31T10:49:20.120Z,22.22
2022-08-31T10:50:20.048Z,22.06
2022-08-31T10:51:19.972Z,22.10
2022-08-31T10:52:19.956Z,22.15
2022-08-31T10:53:20.154Z,22.21
2022-08-31T10:54:19.795Z,22.24
2022-08-31T10:55:19.742Z,22.24
2022-08-31T10:56:19.696Z,22.37
2022-08-31T10:57:21.733Z,22.52
2022-08-31T10:58:20.316Z,22.55
2022-08-31T10:59:19.479Z,22.57
2022-08-31T11:00:19.427Z,22.57
2022-08-31T11:01:19.430Z,22.54
2022-08-31T11:02:19.287Z,22.55
2022-08-31T11:03:19.424Z,22.57
2022-08-31T11:04:19.991Z,22.61
2022-08-31T11:05:19.083Z,22.70
2022-08-31T11:06:19.024Z,22.72
2022-08-31T11:07:18.972Z,22.65
2022-08-31T11:08:18.903Z,22.60
2022-08-31T11:09:18.865Z,22.51
2022-08-31T11:10:19.018Z,22.49
2022-08-31T11:11:18.711Z,22.51
2022-08-31T11:12:18.673Z,22.60
2022-08-31T11:13:18.708Z,22.65
2022-08-31T11:14:18.518Z,22.65
2022-08-31T11:15:18.448Z,22.64
2022-08-31T11:16:18.497Z,22.52
2022-08-31T11:17:18.342Z,22.54
2022-08-31T11:18:18.259Z,22.55
2022-08-31T11:19:18.204Z,22.55
2022-08-31T11:20:18.131Z,22.55
2022-08-31T11:21:18.064Z,22.54
2022-08-31T11:22:18.013Z,22.49
2022-08-31T11:23:18.069Z,22.46
2022-08-31T11:24:17.886Z,22.47
2022-08-31T11:25:17.822Z,22.39
2022-08-31T11:26:17.747Z,22.35
2022-08-31T11:27:17.717Z,22.36
2022-08-31T11:28:17.675Z,22.36
2022-08-31T11:29:17.574Z,22.31
2022-08-31T11:30:17.502Z,22.36
2022-08-31T11:31:17.547Z,22.39
2022-08-31T11:32:17.381Z,22.40
2022-08-31T11:33:18.003Z,22.39
2022-08-31T11:34:18.028Z,22.36
2022-08-31T11:35:17.180Z,22.31
2022-08-31T11:36:17.127Z,22.24
2022-08-31T11:37:17.059Z,22.25
2022-08-31T11:38:17.067Z,22.22
2022-08-31T11:39:16.921Z,22.20
2022-08-31T11:40:16.974Z,22.20
2022-08-31T11:41:16.807Z,22.25
2022-08-31T11:42:16.741Z,22.28
2022-08-31T11:43:16.830Z,22.28
2022-08-31T11:44:16.653Z,22.30
2022-08-31T11:45:16.558Z,22.31
2022-08-31T11:46:18.327Z,22.28
2022-08-31T11:47:16.427Z,22.21
2022-08-31T11:48:16.345Z,22.14
2022-08-31T11:49:16.295Z,22.14
2022-08-31T11:50:16.232Z,22.14
2022-08-31T11:51:16.179Z,22.21
2022-08-31T11:52:16.128Z,22.31
2022-08-31T11:53:16.045Z,22.39
2022-08-31T11:54:15.966Z,22.45
2022-08-31T11:55:15.904Z,22.49
2022-08-31T11:56:15.839Z,22.51
2022-08-31T11:57:15.979Z,22.55
2022-08-31T11:58:20.064Z,22.60
2022-08-31T11:59:15.650Z,22.67
2022-08-31T12:00:15.600Z,22.80
2022-08-31T12:01:15.557Z,22.90
2022-08-31T12:02:15.521Z,22.92
2022-08-31T12:03:15.388Z,22.86
2022-08-31T12:04:18.192Z,22.82
2022-08-31T12:05:15.339Z,22.82
2022-08-31T12:06:15.222Z,22.82
2022-08-31T12:07:15.245Z,22.88
2022-08-31T12:08:15.115Z,22.98
2022-08-31T12:09:15.017Z,23.15
2022-08-31T12:10:16.173Z,23.36
2022-08-31T12:11:14.927Z,23.48
2022-08-31T12:12:14.863Z,23.54
2022-08-31T12:13:14.797Z,23.54
2022-08-31T12:14:14.692Z,23.42
2022-08-31T12:15:14.633Z,23.35
2022-08-31T12:16:16.200Z,23.32
2022-08-31T12:17:14.566Z,23.32
2022-08-31T12:18:14.468Z,23.28
2022-08-31T12:19:14.373Z,23.22
2022-08-31T12:20:14.331Z,23.16
2022-08-31T12:21:14.246Z,22.98
2022-08-31T12:22:14.216Z,22.92
2022-08-31T12:23:18.707Z,22.90
2022-08-31T12:24:15.344Z,22.85
2022-08-31T12:25:13.997Z,22.76
2022-08-31T12:26:13.944Z,22.70
2022-08-31T12:27:13.883Z,22.67
2022-08-31T12:28:14.615Z,22.61
2022-08-31T12:29:13.753Z,22.57
2022-08-31T12:30:13.716Z,22.55
2022-08-31T12:31:13.709Z,22.47
2022-08-31T12:32:13.577Z,22.45
2022-08-31T12:33:13.488Z,22.37
2022-08-31T12:34:13.437Z,22.36
2022-08-31T12:35:13.361Z,22.36
2022-08-31T12:36:13.309Z,22.36
2022-08-31T12:37:13.291Z,22.33
2022-08-31T12:38:13.208Z,22.35
2022-08-31T12:39:13.116Z,22.36
2022-08-31T12:40:13.144Z,22.40
2022-08-31T12:41:13.023Z,22.40
2022-08-31T12:42:12.937Z,22.39
2022-08-31T12:43:12.858Z,22.42
2022-08-31T12:44:14.221Z,22.46
2022-08-31T12:45:12.728Z,22.49
2022-08-31T12:46:12.749Z,22.52
2022-08-31T12:47:12.612Z,22.57
2022-08-31T12:48:12.535Z,22.54
2022-08-31T12:49:12.494Z,22.45
2022-08-31T12:50:13.892Z,22.42
2022-08-31T12:51:12.394Z,22.40